sensor_id;sensor_type;location;lat;lon;timestamp;pressure;altitude;pressure_sealevel;temperature;humidity
51289;BME280;37372;52.294;5.152;2023-03-23T00:02:48;100093.16;;;10.77;80.26
51289;BME280;37372;52.294;5.152;2023-03-23T00:05:13;100086.47;;;10.73;80.54
51289;BME280;37372;52.294;5.152;2023-03-23T00:07:40;100098.63;;;10.77;80.11
51289;BME280;37372;52.294;5.152;2023-03-23T00:10:10;100093.53;;;10.69;80.83
51289;BME280;37372;52.294;5.152;2023-03-23T00:12:48;100098.84;;;10.75;80.26
51289;BME280;37372;52.294;5.152;2023-03-23T00:15:15;100099.94;;;10.74;80.51
51289;BME280;37372;52.294;5.152;2023-03-23T00:17:42;100101.69;;;10.80;79.90
51289;BME280;37372;52.294;5.152;2023-03-23T00:20:10;100087.41;;;10.78;79.80
51289;BME280;37372;52.294;5.152;2023-03-23T00:22:43;100098.03;;;10.75;79.70
51289;BME280;37372;52.294;5.152;2023-03-23T00:25:15;100076.59;;;10.89;79.15
51289;BME280;37372;52.294;5.152;2023-03-23T00:27:48;100082.00;;;10.83;79.64
51289;BME280;37372;52.294;5.152;2023-03-23T00:30:13;100086.13;;;10.86;79.18
51289;BME280;37372;52.294;5.152;2023-03-23T00:32:39;100076.25;;;10.85;78.75
51289;BME280;37372;52.294;5.152;2023-03-23T00:35:05;100084.75;;;10.83;79.17
51289;BME280;37372;52.294;5.152;2023-03-23T00:37:31;100081.03;;;10.95;78.34
51289;BME280;37372;52.294;5.152;2023-03-23T00:39:56;100072.41;;;10.86;78.92
51289;BME280;37372;52.294;5.152;2023-03-23T00:42:28;100070.75;;;10.85;79.09
51289;BME280;37372;52.294;5.152;2023-03-23T00:44:54;100072.34;;;10.81;79.16
51289;BME280;37372;52.294;5.152;2023-03-23T00:47:32;100072.28;;;10.76;79.32
51289;BME280;37372;52.294;5.152;2023-03-23T00:50:02;100069.09;;;10.84;79.17
51289;BME280;37372;52.294;5.152;2023-03-23T00:52:28;100065.00;;;10.87;78.68
51289;BME280;37372;52.294;5.152;2023-03-23T00:54:53;100056.47;;;10.83;78.69
51289;BME280;37372;52.294;5.152;2023-03-23T00:57:27;100059.97;;;10.78;79.07
51289;BME280;37372;52.294;5.152;2023-03-23T00:59:54;100057.44;;;10.94;78.57
51289;BME280;37372;52.294;5.152;2023-03-23T01:02:35;100062.78;;;10.83;78.17
51289;BME280;37372;52.294;5.152;2023-03-23T01:05:07;100061.13;;;10.82;78.44
51289;BME280;37372;52.294;5.152;2023-03-23T01:07:36;100050.34;;;10.76;79.02
51289;BME280;37372;52.294;5.152;2023-03-23T01:10:02;100056.78;;;10.87;78.14
51289;BME280;37372;52.294;5.152;2023-03-23T01:12:34;100056.88;;;10.92;78.28
51289;BME280;37372;52.294;5.152;2023-03-23T01:15:06;100059.34;;;10.93;78.32
51289;BME280;37372;52.294;5.152;2023-03-23T01:17:41;100056.78;;;10.87;78.51
51289;BME280;37372;52.294;5.152;2023-03-23T01:20:11;100049.31;;;10.82;78.31
51289;BME280;37372;52.294;5.152;2023-03-23T01:22:37;100052.66;;;10.84;78.58
51289;BME280;37372;52.294;5.152;2023-03-23T01:25:05;100028.13;;;10.77;78.25
51289;BME280;37372;52.294;5.152;2023-03-23T01:27:31;100030.94;;;10.82;78.25
51289;BME280;37372;52.294;5.152;2023-03-23T01:29:56;100016.44;;;10.87;78.18
51289;BME280;37372;52.294;5.152;2023-03-23T01:32:22;100028.84;;;10.90;77.85
51289;BME280;37372;52.294;5.152;2023-03-23T01:34:47;100022.19;;;10.85;77.46
51289;BME280;37372;52.294;5.152;2023-03-23T01:37:13;100010.75;;;10.89;77.44
51289;BME280;37372;52.294;5.152;2023-03-23T01:39:43;100023.03;;;10.86;77.48
51289;BME280;37372;52.294;5.152;2023-03-23T01:42:13;100010.03;;;10.98;77.12
51289;BME280;37372;52.294;5.152;2023-03-23T01:47:12;100012.13;;;10.91;77.06
51289;BME280;37372;52.294;5.152;2023-03-23T01:49:41;100015.97;;;10.90;77.38
51289;BME280;37372;52.294;5.152;2023-03-23T01:52:37;100012.13;;;10.91;77.11
51289;BME280;37372;52.294;5.152;2023-03-23T01:55:06;100025.16;;;11.01;77.06
51289;BME280;37372;52.294;5.152;2023-03-23T01:57:31;100009.06;;;10.88;77.51
51289;BME280;37372;52.294;5.152;2023-03-23T02:00:01;100004.34;;;10.83;77.34
51289;BME280;37372;52.294;5.152;2023-03-23T02:02:43;100000.50;;;10.84;77.49
51289;BME280;37372;52.294;5.152;2023-03-23T02:08:11;100003.25;;;10.84;77.55
51289;BME280;37372;52.294;5.152;2023-03-23T02:10:38;100001.41;;;10.90;76.99
51289;BME280;37372;52.294;5.152;2023-03-23T02:13:06;99991.53;;;10.89;76.97
51289;BME280;37372;52.294;5.152;2023-03-23T02:18:30;99990.25;;;10.96;77.15
51289;BME280;37372;52.294;5.152;2023-03-23T02:24:50;99995.75;;;10.96;76.54
51289;BME280;37372;52.294;5.152;2023-03-23T02:30:40;99986.22;;;11.04;76.31
51289;BME280;37372;52.294;5.152;2023-03-23T02:36:03;99999.06;;;10.98;76.68
51289;BME280;37372;52.294;5.152;2023-03-23T02:39:19;99991.56;;;10.94;77.01
51289;BME280;37372;52.294;5.152;2023-03-23T02:41:22;99997.13;;;10.99;76.75
51289;BME280;37372;52.294;5.152;2023-03-23T02:43:55;99989.16;;;10.97;76.74
51289;BME280;37372;52.294;5.152;2023-03-23T02:46:41;99989.72;;;10.99;76.42
51289;BME280;37372;52.294;5.152;2023-03-23T02:49:32;99990.06;;;11.03;76.87
51289;BME280;37372;52.294;5.152;2023-03-23T02:52:10;99985.28;;;11.15;76.31
51289;BME280;37372;52.294;5.152;2023-03-23T02:54:47;99986.19;;;11.21;75.62
51289;BME280;37372;52.294;5.152;2023-03-23T02:57:13;99981.13;;;11.12;76.00
51289;BME280;37372;52.294;5.152;2023-03-23T02:59:39;99985.78;;;11.12;76.09
51289;BME280;37372;52.294;5.152;2023-03-23T03:02:35;99987.69;;;11.11;76.26
51289;BME280;37372;52.294;5.152;2023-03-23T03:16:31;99973.59;;;11.03;76.84
51289;BME280;37372;52.294;5.152;2023-03-23T03:21:41;99973.13;;;11.11;76.43
51289;BME280;37372;52.294;5.152;2023-03-23T03:24:09;99966.69;;;11.00;78.25
51289;BME280;37372;52.294;5.152;2023-03-23T03:26:38;99966.66;;;10.95;78.62
51289;BME280;37372;52.294;5.152;2023-03-23T03:29:08;99960.69;;;10.81;79.13
51289;BME280;37372;52.294;5.152;2023-03-23T03:31:38;99956.03;;;10.82;79.15
51289;BME280;37372;52.294;5.152;2023-03-23T03:34:07;99956.19;;;10.75;79.23
51289;BME280;37372;52.294;5.152;2023-03-23T03:36:34;99955.00;;;10.88;78.07
51289;BME280;37372;52.294;5.152;2023-03-23T03:39:12;99966.25;;;10.87;78.22
51289;BME280;37372;52.294;5.152;2023-03-23T03:41:40;99958.91;;;10.92;77.81
51289;BME280;37372;52.294;5.152;2023-03-23T03:44:14;99951.13;;;10.84;78.04
51289;BME280;37372;52.294;5.152;2023-03-23T03:46:40;99963.19;;;10.83;78.01
51289;BME280;37372;52.294;5.152;2023-03-23T03:49:11;99965.16;;;10.88;77.83
51289;BME280;37372;52.294;5.152;2023-03-23T03:51:39;99991.75;;;10.87;78.15
51289;BME280;37372;52.294;5.152;2023-03-23T03:54:09;99984.13;;;10.89;77.92
51289;BME280;37372;52.294;5.152;2023-03-23T03:56:38;99996.16;;;10.88;79.19
51289;BME280;37372;52.294;5.152;2023-03-23T03:59:07;100002.16;;;10.85;79.52
51289;BME280;37372;52.294;5.152;2023-03-23T04:01:36;99998.88;;;10.66;80.22
51289;BME280;37372;52.294;5.152;2023-03-23T04:04:05;99999.97;;;10.48;80.28
51289;BME280;37372;52.294;5.152;2023-03-23T04:06:44;100001.31;;;10.29;81.24
51289;BME280;37372;52.294;5.152;2023-03-23T04:09:13;100004.31;;;10.27;81.55
51289;BME280;37372;52.294;5.152;2023-03-23T04:11:41;100004.31;;;10.27;81.62
51289;BME280;37372;52.294;5.152;2023-03-23T04:14:07;100001.84;;;10.26;82.59
51289;BME280;37372;52.294;5.152;2023-03-23T04:16:32;100003.25;;;10.28;82.71
51289;BME280;37372;52.294;5.152;2023-03-23T04:19:00;100012.34;;;10.17;83.87
51289;BME280;37372;52.294;5.152;2023-03-23T04:21:26;100007.63;;;10.13;84.60
51289;BME280;37372;52.294;5.152;2023-03-23T04:23:54;100006.03;;;10.17;84.04
51289;BME280;37372;52.294;5.152;2023-03-23T04:26:20;100003.28;;;10.17;84.83
51289;BME280;37372;52.294;5.152;2023-03-23T04:28:49;99998.13;;;10.03;85.00
51289;BME280;37372;52.294;5.152;2023-03-23T04:31:18;100019.06;;;10.10;85.48
51289;BME280;37372;52.294;5.152;2023-03-23T04:33:44;100025.53;;;10.03;85.13
51289;BME280;37372;52.294;5.152;2023-03-23T04:36:11;100016.22;;;10.04;84.87
51289;BME280;37372;52.294;5.152;2023-03-23T04:38:41;100023.56;;;9.99;85.49
51289;BME280;37372;52.294;5.152;2023-03-23T04:41:08;100024.84;;;9.96;85.61
51289;BME280;37372;52.294;5.152;2023-03-23T04:44:00;100018.38;;;9.86;87.22
51289;BME280;37372;52.294;5.152;2023-03-23T04:46:27;100031.16;;;9.80;87.47
51289;BME280;37372;52.294;5.152;2023-03-23T04:48:57;100035.19;;;9.77;86.97
51289;BME280;37372;52.294;5.152;2023-03-23T04:51:29;100030.47;;;9.73;87.16
51289;BME280;37372;52.294;5.152;2023-03-23T04:53:55;100044.03;;;9.80;86.75
51289;BME280;37372;52.294;5.152;2023-03-23T04:56:26;100047.25;;;9.76;86.02
51289;BME280;37372;52.294;5.152;2023-03-23T04:58:52;100035.44;;;9.76;86.24
51289;BME280;37372;52.294;5.152;2023-03-23T05:01:24;100055.34;;;9.71;86.06
51289;BME280;37372;52.294;5.152;2023-03-23T05:03:55;100040.81;;;9.71;85.99
51289;BME280;37372;52.294;5.152;2023-03-23T05:06:31;100061.06;;;9.70;86.07
51289;BME280;37372;52.294;5.152;2023-03-23T05:08:56;100043.66;;;9.76;85.21
51289;BME280;37372;52.294;5.152;2023-03-23T05:11:21;100045.59;;;9.75;85.20
51289;BME280;37372;52.294;5.152;2023-03-23T05:13:47;100049.81;;;9.83;84.63
51289;BME280;37372;52.294;5.152;2023-03-23T05:16:22;100044.09;;;9.85;85.25
51289;BME280;37372;52.294;5.152;2023-03-23T05:18:47;100053.41;;;9.84;84.89
51289;BME280;37372;52.294;5.152;2023-03-23T05:21:13;100052.47;;;9.78;85.32
51289;BME280;37372;52.294;5.152;2023-03-23T05:23:39;100051.06;;;9.75;85.79
51289;BME280;37372;52.294;5.152;2023-03-23T05:26:08;100064.34;;;9.84;85.13
51289;BME280;37372;52.294;5.152;2023-03-23T05:28:34;100069.22;;;9.93;83.80
51289;BME280;37372;52.294;5.152;2023-03-23T05:31:01;100058.72;;;9.90;84.17
51289;BME280;37372;52.294;5.152;2023-03-23T05:33:27;100064.41;;;10.00;83.06
51289;BME280;37372;52.294;5.152;2023-03-23T05:35:53;100070.44;;;10.02;82.48
51289;BME280;37372;52.294;5.152;2023-03-23T05:38:18;100060.94;;;10.05;82.29
51289;BME280;37372;52.294;5.152;2023-03-23T05:40:45;100073.19;;;10.02;82.21
51289;BME280;37372;52.294;5.152;2023-03-23T05:43:10;100067.91;;;10.13;82.13
51289;BME280;37372;52.294;5.152;2023-03-23T05:45:36;100074.84;;;10.03;82.13
51289;BME280;37372;52.294;5.152;2023-03-23T05:48:02;100078.94;;;10.01;82.17
51289;BME280;37372;52.294;5.152;2023-03-23T05:50:27;100084.66;;;9.99;81.70
51289;BME280;37372;52.294;5.152;2023-03-23T05:53:02;100088.72;;;9.97;81.71
51289;BME280;37372;52.294;5.152;2023-03-23T05:55:30;100090.50;;;9.91;82.16
51289;BME280;37372;52.294;5.152;2023-03-23T05:57:58;100085.03;;;9.91;82.78
51289;BME280;37372;52.294;5.152;2023-03-23T06:00:39;100089.63;;;9.86;82.96
51289;BME280;37372;52.294;5.152;2023-03-23T06:03:08;100087.25;;;9.77;83.38
51289;BME280;37372;52.294;5.152;2023-03-23T06:05:35;100080.25;;;9.70;84.22
51289;BME280;37372;52.294;5.152;2023-03-23T06:08:00;100098.94;;;9.73;84.36
51289;BME280;37372;52.294;5.152;2023-03-23T06:10:27;100090.22;;;9.76;83.97
51289;BME280;37372;52.294;5.152;2023-03-23T06:15:55;100103.06;;;9.87;83.74
51289;BME280;37372;52.294;5.152;2023-03-23T06:18:43;100105.94;;;9.81;83.83
51289;BME280;37372;52.294;5.152;2023-03-23T06:21:12;100104.47;;;9.90;83.09
51289;BME280;37372;52.294;5.152;2023-03-23T06:23:37;100116.34;;;9.95;83.08
51289;BME280;37372;52.294;5.152;2023-03-23T06:26:15;100118.53;;;9.93;83.01
51289;BME280;37372;52.294;5.152;2023-03-23T06:28:43;100125.72;;;10.11;82.78
51289;BME280;37372;52.294;5.152;2023-03-23T06:31:08;100119.59;;;9.92;83.64
51289;BME280;37372;52.294;5.152;2023-03-23T06:33:36;100129.91;;;10.02;82.77
51289;BME280;37372;52.294;5.152;2023-03-23T06:36:06;100131.81;;;10.01;83.65
51289;BME280;37372;52.294;5.152;2023-03-23T06:38:37;100135.91;;;9.99;83.42
51289;BME280;37372;52.294;5.152;2023-03-23T06:41:03;100140.53;;;9.98;83.26
51289;BME280;37372;52.294;5.152;2023-03-23T06:43:32;100140.47;;;10.10;82.74
51289;BME280;37372;52.294;5.152;2023-03-23T06:45:59;100147.03;;;10.09;83.37
51289;BME280;37372;52.294;5.152;2023-03-23T06:48:35;100143.56;;;10.25;82.73
51289;BME280;37372;52.294;5.152;2023-03-23T06:51:00;100143.56;;;10.25;82.30
51289;BME280;37372;52.294;5.152;2023-03-23T06:53:26;100142.22;;;10.28;81.95
51289;BME280;37372;52.294;5.152;2023-03-23T06:56:11;100134.03;;;10.45;82.13
51289;BME280;37372;52.294;5.152;2023-03-23T06:58:38;100134.75;;;10.40;81.99
51289;BME280;37372;52.294;5.152;2023-03-23T07:01:08;100148.38;;;10.35;81.84
51289;BME280;37372;52.294;5.152;2023-03-23T07:03:33;100146.28;;;10.25;82.47
51289;BME280;37372;52.294;5.152;2023-03-23T07:05:59;100160.94;;;10.31;82.20
51289;BME280;37372;52.294;5.152;2023-03-23T07:08:28;100143.56;;;10.42;81.82
51289;BME280;37372;52.294;5.152;2023-03-23T07:10:55;100142.09;;;10.51;81.43
51289;BME280;37372;52.294;5.152;2023-03-23T07:13:24;100148.25;;;10.58;80.51
51289;BME280;37372;52.294;5.152;2023-03-23T07:15:53;100137.28;;;10.58;80.08
51289;BME280;37372;52.294;5.152;2023-03-23T07:18:20;100137.94;;;10.66;79.60
51289;BME280;37372;52.294;5.152;2023-03-23T07:20:53;100144.16;;;10.61;79.77
51289;BME280;37372;52.294;5.152;2023-03-23T07:23:25;100145.09;;;10.67;78.87
51289;BME280;37372;52.294;5.152;2023-03-23T07:26:00;100148.41;;;10.69;78.71
51289;BME280;37372;52.294;5.152;2023-03-23T07:28:35;100160.47;;;10.68;78.62
51289;BME280;37372;52.294;5.152;2023-03-23T07:31:08;100158.72;;;10.62;78.48
51289;BME280;37372;52.294;5.152;2023-03-23T07:33:34;100162.78;;;10.59;77.67
51289;BME280;37372;52.294;5.152;2023-03-23T07:36:10;100164.03;;;10.68;77.40
51289;BME280;37372;52.294;5.152;2023-03-23T07:38:36;100164.03;;;10.68;77.69
51289;BME280;37372;52.294;5.152;2023-03-23T07:41:02;100159.47;;;10.57;78.12
51289;BME280;37372;52.294;5.152;2023-03-23T07:43:34;100171.59;;;10.61;77.15
51289;BME280;37372;52.294;5.152;2023-03-23T07:46:23;100170.94;;;10.71;77.33
51289;BME280;37372;52.294;5.152;2023-03-23T07:49:00;100180.91;;;10.60;77.80
51289;BME280;37372;52.294;5.152;2023-03-23T07:51:30;100187.13;;;10.55;77.64
51289;BME280;37372;52.294;5.152;2023-03-23T07:53:58;100186.66;;;10.75;76.21
51289;BME280;37372;52.294;5.152;2023-03-23T07:56:24;100182.50;;;10.73;76.24
51289;BME280;37372;52.294;5.152;2023-03-23T07:58:56;100188.00;;;10.73;76.20
51289;BME280;37372;52.294;5.152;2023-03-23T08:01:22;100184.31;;;10.67;75.20
51289;BME280;37372;52.294;5.152;2023-03-23T08:03:54;100176.84;;;10.63;76.11
51289;BME280;37372;52.294;5.152;2023-03-23T08:06:23;100184.31;;;10.50;76.45
51289;BME280;37372;52.294;5.152;2023-03-23T08:08:55;100182.72;;;10.54;76.30
51289;BME280;37372;52.294;5.152;2023-03-23T08:11:31;100186.22;;;10.50;77.15
51289;BME280;37372;52.294;5.152;2023-03-23T08:14:00;100185.47;;;10.54;76.76
51289;BME280;37372;52.294;5.152;2023-03-23T08:16:32;100181.00;;;10.65;77.79
51289;BME280;37372;52.294;5.152;2023-03-23T08:18:58;100177.09;;;10.78;77.27
51289;BME280;37372;52.294;5.152;2023-03-23T08:21:30;100193.16;;;11.03;76.82
51289;BME280;37372;52.294;5.152;2023-03-23T08:24:01;100197.47;;;11.16;76.26
51289;BME280;37372;52.294;5.152;2023-03-23T08:26:27;100197.47;;;11.16;76.13
51289;BME280;37372;52.294;5.152;2023-03-23T08:28:56;100198.63;;;11.20;75.89
51289;BME280;37372;52.294;5.152;2023-03-23T08:31:22;100195.47;;;11.28;75.81
51289;BME280;37372;52.294;5.152;2023-03-23T08:33:49;100202.72;;;11.17;75.93
51289;BME280;37372;52.294;5.152;2023-03-23T08:36:15;100196.78;;;11.25;75.83
51289;BME280;37372;52.294;5.152;2023-03-23T08:38:53;100200.97;;;11.28;77.02
51289;BME280;37372;52.294;5.152;2023-03-23T08:41:30;100204.28;;;11.30;76.56
51289;BME280;37372;52.294;5.152;2023-03-23T08:44:05;100211.19;;;11.32;75.84
51289;BME280;37372;52.294;5.152;2023-03-23T08:46:31;100205.47;;;11.34;74.25
51289;BME280;37372;52.294;5.152;2023-03-23T08:48:59;100209.44;;;11.43;74.19
51289;BME280;37372;52.294;5.152;2023-03-23T08:51:24;100224.16;;;11.54;73.87
51289;BME280;37372;52.294;5.152;2023-03-23T08:53:54;100225.34;;;11.41;74.38
51289;BME280;37372;52.294;5.152;2023-03-23T08:56:23;100222.22;;;11.54;74.34
51289;BME280;37372;52.294;5.152;2023-03-23T08:58:48;100227.50;;;11.78;72.79
51289;BME280;37372;52.294;5.152;2023-03-23T09:01:14;100230.09;;;11.84;72.71
51289;BME280;37372;52.294;5.152;2023-03-23T09:03:41;100221.59;;;12.08;71.79
51289;BME280;37372;52.294;5.152;2023-03-23T09:06:08;100215.00;;;12.31;71.59
51289;BME280;37372;52.294;5.152;2023-03-23T09:08:43;100223.25;;;12.09;71.69
51289;BME280;37372;52.294;5.152;2023-03-23T09:11:13;100228.25;;;11.90;72.42
51289;BME280;37372;52.294;5.152;2023-03-23T09:13:39;100231.50;;;11.87;71.87
51289;BME280;37372;52.294;5.152;2023-03-23T09:16:13;100233.25;;;11.93;71.63
51289;BME280;37372;52.294;5.152;2023-03-23T09:18:48;100233.38;;;12.25;71.37
51289;BME280;37372;52.294;5.152;2023-03-23T09:21:23;100228.38;;;12.22;70.04
51289;BME280;37372;52.294;5.152;2023-03-23T09:24:11;100231.50;;;12.31;68.75
51289;BME280;37372;52.294;5.152;2023-03-23T09:26:39;100227.06;;;12.30;68.86
51289;BME280;37372;52.294;5.152;2023-03-23T09:29:08;100233.38;;;12.25;68.81
51289;BME280;37372;52.294;5.152;2023-03-23T09:31:37;100238.03;;;12.25;67.90
51289;BME280;37372;52.294;5.152;2023-03-23T09:34:03;100233.34;;;12.03;68.30
51289;BME280;37372;52.294;5.152;2023-03-23T09:36:29;100235.00;;;12.04;69.97
51289;BME280;37372;52.294;5.152;2023-03-23T09:38:56;100242.91;;;12.17;69.39
51289;BME280;37372;52.294;5.152;2023-03-23T09:50:28;100230.19;;;12.11;68.16
51289;BME280;37372;52.294;5.152;2023-03-23T09:53:28;100240.03;;;12.07;67.47
51289;BME280;37372;52.294;5.152;2023-03-23T09:56:12;100243.47;;;12.19;66.39
51289;BME280;37372;52.294;5.152;2023-03-23T09:59:01;100247.25;;;12.13;66.14
51289;BME280;37372;52.294;5.152;2023-03-23T10:01:32;100255.13;;;12.05;66.63
51289;BME280;37372;52.294;5.152;2023-03-23T10:04:25;100251.97;;;11.96;65.99
51289;BME280;37372;52.294;5.152;2023-03-23T10:06:58;100269.75;;;12.10;66.25
51289;BME280;37372;52.294;5.152;2023-03-23T10:09:25;100266.41;;;12.08;65.03
51289;BME280;37372;52.294;5.152;2023-03-23T10:15:20;100277.13;;;12.27;64.66
51289;BME280;37372;52.294;5.152;2023-03-23T10:23:00;100272.81;;;12.14;64.87
51289;BME280;37372;52.294;5.152;2023-03-23T10:25:29;100276.72;;;12.40;65.41
51289;BME280;37372;52.294;5.152;2023-03-23T10:28:10;100270.34;;;12.61;64.93
51289;BME280;37372;52.294;5.152;2023-03-23T10:33:47;100276.94;;;12.82;64.52
51289;BME280;37372;52.294;5.152;2023-03-23T10:36:33;100272.13;;;12.72;64.76
51289;BME280;37372;52.294;5.152;2023-03-23T10:39:08;100277.72;;;12.56;64.73
51289;BME280;37372;52.294;5.152;2023-03-23T10:41:37;100279.41;;;12.57;64.09
51289;BME280;37372;52.294;5.152;2023-03-23T10:44:16;100290.22;;;12.63;65.22
51289;BME280;37372;52.294;5.152;2023-03-23T10:46:56;100287.75;;;12.67;63.93
51289;BME280;37372;52.294;5.152;2023-03-23T10:49:26;100278.38;;;12.63;63.74
51289;BME280;37372;52.294;5.152;2023-03-23T10:54:39;100268.03;;;12.75;61.60
51289;BME280;37372;52.294;5.152;2023-03-23T10:57:26;100281.69;;;12.92;61.62
51289;BME280;37372;52.294;5.152;2023-03-23T11:02:46;100300.81;;;12.77;62.56
51289;BME280;37372;52.294;5.152;2023-03-23T11:05:21;100303.09;;;12.85;62.93
51289;BME280;37372;52.294;5.152;2023-03-23T11:07:57;100296.47;;;13.13;63.13
51289;BME280;37372;52.294;5.152;2023-03-23T11:14:00;100297.63;;;13.44;59.62
51289;BME280;37372;52.294;5.152;2023-03-23T11:16:43;100299.41;;;13.01;60.01
51289;BME280;37372;52.294;5.152;2023-03-23T11:19:22;100299.91;;;12.71;61.50
51289;BME280;37372;52.294;5.152;2023-03-23T11:21:52;100295.03;;;12.51;62.66
51289;BME280;37372;52.294;5.152;2023-03-23T11:24:44;100295.78;;;12.46;63.00
51289;BME280;37372;52.294;5.152;2023-03-23T11:27:11;100295.97;;;12.40;63.11
51289;BME280;37372;52.294;5.152;2023-03-23T11:32:15;100302.25;;;12.57;60.95
51289;BME280;37372;52.294;5.152;2023-03-23T11:34:46;100297.38;;;12.64;60.61
51289;BME280;37372;52.294;5.152;2023-03-23T11:37:32;100300.13;;;12.64;60.65
51289;BME280;37372;52.294;5.152;2023-03-23T11:40:15;100306.47;;;12.92;60.66
51289;BME280;37372;52.294;5.152;2023-03-23T11:42:46;100305.28;;;13.10;59.88
51289;BME280;37372;52.294;5.152;2023-03-23T11:45:30;100298.25;;;12.97;60.62
51289;BME280;37372;52.294;5.152;2023-03-23T11:56:41;100286.22;;;13.03;60.29
51289;BME280;37372;52.294;5.152;2023-03-23T11:59:18;100296.97;;;13.32;58.35
51289;BME280;37372;52.294;5.152;2023-03-23T12:02:12;100281.63;;;13.41;58.50
51289;BME280;37372;52.294;5.152;2023-03-23T12:10:38;100289.31;;;14.23;55.62
51289;BME280;37372;52.294;5.152;2023-03-23T12:13:31;100299.69;;;14.06;55.33
51289;BME280;37372;52.294;5.152;2023-03-23T12:41:49;100289.91;;;13.83;58.88
51289;BME280;37372;52.294;5.152;2023-03-23T12:44:35;100294.13;;;13.59;60.21
51289;BME280;37372;52.294;5.152;2023-03-23T12:48:06;100279.22;;;13.97;57.95
51289;BME280;37372;52.294;5.152;2023-03-23T12:50:39;100277.03;;;13.94;58.55
51289;BME280;37372;52.294;5.152;2023-03-23T12:53:15;100279.38;;;14.27;58.04
51289;BME280;37372;52.294;5.152;2023-03-23T12:58:34;100265.66;;;14.38;54.15
51289;BME280;37372;52.294;5.152;2023-03-23T13:04:16;100272.69;;;14.08;54.07
51289;BME280;37372;52.294;5.152;2023-03-23T13:06:45;100268.63;;;14.26;54.17
51289;BME280;37372;52.294;5.152;2023-03-23T13:12:05;100275.31;;;14.45;53.81
51289;BME280;37372;52.294;5.152;2023-03-23T13:14:41;100277.06;;;14.67;53.56
51289;BME280;37372;52.294;5.152;2023-03-23T13:23:09;100280.00;;;14.40;55.19
51289;BME280;37372;52.294;5.152;2023-03-23T13:25:48;100288.81;;;14.36;56.63
51289;BME280;37372;52.294;5.152;2023-03-23T13:29:44;100284.88;;;14.17;55.71
51289;BME280;37372;52.294;5.152;2023-03-23T13:32:18;100271.00;;;14.02;55.06
51289;BME280;37372;52.294;5.152;2023-03-23T13:34:46;100286.56;;;13.76;56.28
51289;BME280;37372;52.294;5.152;2023-03-23T13:39:57;100296.41;;;13.67;57.50
51289;BME280;37372;52.294;5.152;2023-03-23T13:42:26;100302.72;;;13.62;58.22
51289;BME280;37372;52.294;5.152;2023-03-23T13:47:43;100315.44;;;13.68;59.76
51289;BME280;37372;52.294;5.152;2023-03-23T13:53:12;100322.06;;;13.67;59.22
51289;BME280;37372;52.294;5.152;2023-03-23T13:55:48;100320.91;;;13.63;58.68
51289;BME280;37372;52.294;5.152;2023-03-23T13:58:25;100300.66;;;13.79;57.81
51289;BME280;37372;52.294;5.152;2023-03-23T14:01:16;100310.06;;;13.89;56.89
51289;BME280;37372;52.294;5.152;2023-03-23T14:03:46;100305.69;;;13.93;57.24
51289;BME280;37372;52.294;5.152;2023-03-23T14:06:18;100300.41;;;13.86;56.25
51289;BME280;37372;52.294;5.152;2023-03-23T14:08:50;100293.25;;;13.90;56.36
51289;BME280;37372;52.294;5.152;2023-03-23T14:14:27;100278.69;;;13.58;56.73
51289;BME280;37372;52.294;5.152;2023-03-23T14:17:21;100276.22;;;13.56;57.98
51289;BME280;37372;52.294;5.152;2023-03-23T14:19:56;100277.03;;;13.57;57.99
51289;BME280;37372;52.294;5.152;2023-03-23T14:22:44;100288.44;;;13.70;57.81
51289;BME280;37372;52.294;5.152;2023-03-23T14:25:29;100302.22;;;13.70;58.45
51289;BME280;37372;52.294;5.152;2023-03-23T14:27:56;100304.50;;;13.83;57.64
51289;BME280;37372;52.294;5.152;2023-03-23T14:30:34;100288.81;;;13.84;57.75
51289;BME280;37372;52.294;5.152;2023-03-23T14:33:07;100287.09;;;13.73;57.75
51289;BME280;37372;52.294;5.152;2023-03-23T14:35:43;100279.47;;;13.85;58.20
51289;BME280;37372;52.294;5.152;2023-03-23T14:38:18;100279.94;;;13.72;57.90
51289;BME280;37372;52.294;5.152;2023-03-23T14:40:48;100263.16;;;13.78;57.71
51289;BME280;37372;52.294;5.152;2023-03-23T14:43:17;100234.50;;;13.85;56.67
51289;BME280;37372;52.294;5.152;2023-03-23T14:45:58;100237.91;;;14.02;56.86
51289;BME280;37372;52.294;5.152;2023-03-23T14:48:28;100243.81;;;14.31;56.76
51289;BME280;37372;52.294;5.152;2023-03-23T14:50:59;100209.88;;;14.35;53.97
51289;BME280;37372;52.294;5.152;2023-03-23T14:53:39;100219.22;;;14.19;54.36
51289;BME280;37372;52.294;5.152;2023-03-23T14:56:30;100233.00;;;14.19;53.98
51289;BME280;37372;52.294;5.152;2023-03-23T14:59:17;100233.50;;;14.06;54.46
51289;BME280;37372;52.294;5.152;2023-03-23T15:02:08;100225.00;;;14.13;54.91
51289;BME280;37372;52.294;5.152;2023-03-23T15:04:48;100230.16;;;13.99;54.79
51289;BME280;37372;52.294;5.152;2023-03-23T15:07:25;100236.44;;;13.89;55.22
51289;BME280;37372;52.294;5.152;2023-03-23T15:09:52;100245.03;;;13.93;56.19
51289;BME280;37372;52.294;5.152;2023-03-23T15:12:24;100258.81;;;13.93;54.86
51289;BME280;37372;52.294;5.152;2023-03-23T15:18:26;100245.63;;;14.00;54.41
51289;BME280;37372;52.294;5.152;2023-03-23T15:21:08;100246.94;;;13.87;54.87
51289;BME280;37372;52.294;5.152;2023-03-23T15:23:43;100239.75;;;13.86;55.22
51289;BME280;37372;52.294;5.152;2023-03-23T15:26:42;100240.56;;;13.81;55.58
51289;BME280;37372;52.294;5.152;2023-03-23T15:29:15;100220.59;;;13.64;56.58
51289;BME280;37372;52.294;5.152;2023-03-23T15:32:24;100212.91;;;13.66;57.26
51289;BME280;37372;52.294;5.152;2023-03-23T15:35:04;100215.06;;;13.64;56.65
51289;BME280;37372;52.294;5.152;2023-03-23T15:40:35;100191.34;;;13.58;57.81
51289;BME280;37372;52.294;5.152;2023-03-23T15:43:17;100190.63;;;13.78;57.36